createdAt,value
2018-07-27T02:08:33.187Z,9.13
2018-07-27T02:11:00.399Z,10.97
2018-07-27T02:13:27.651Z,9.60
2018-07-27T02:15:54.848Z,13.83
2018-07-27T02:18:22.058Z,9.87
2018-07-27T02:20:49.458Z,9.13
2018-07-27T02:23:16.665Z,14.33
2018-07-27T02:25:44.402Z,12.50
2018-07-27T02:28:11.612Z,16.50
2018-07-27T02:30:38.820Z,10.20
2018-07-27T02:33:06.188Z,8.93
2018-07-27T02:35:33.663Z,10.50
2018-07-27T02:38:00.872Z,11.90
2018-07-27T02:40:28.196Z,10.43
2018-07-27T02:42:55.642Z,11.00
2018-07-27T02:45:22.964Z,10.60
2018-07-27T02:47:50.434Z,23.83
2018-07-27T02:50:18.775Z,11.47
2018-07-27T02:52:46.167Z,11.20
2018-07-27T02:55:13.448Z,9.83
2018-07-27T02:57:40.670Z,11.00
2018-07-27T03:00:08.126Z,9.80
2018-07-27T03:02:35.443Z,10.90
2018-07-27T03:05:03.784Z,14.70
2018-07-27T03:07:31.093Z,10.40
2018-07-27T03:09:58.363Z,12.47
2018-07-27T03:12:25.666Z,10.27
2018-07-27T03:14:52.864Z,12.67
2018-07-27T03:17:20.079Z,12.57
2018-07-27T03:19:47.523Z,9.03
2018-07-27T03:22:14.720Z,13.90
2018-07-27T03:24:42.033Z,10.30
2018-07-27T03:27:09.375Z,9.70
2018-07-27T03:29:36.595Z,10.83
2018-07-27T03:32:03.893Z,13.88
2018-07-27T03:34:31.203Z,12.90
2018-07-27T03:36:58.592Z,8.60
2018-07-27T03:39:26.078Z,8.90
2018-07-27T03:41:53.303Z,9.23
2018-07-27T03:44:21.289Z,12.25
2018-07-27T03:46:48.522Z,9.70
2018-07-27T03:49:15.818Z,11.68
2018-07-27T03:51:43.078Z,8.50
2018-07-27T03:54:10.273Z,10.53
2018-07-27T03:56:37.611Z,9.00
2018-07-27T03:59:04.973Z,9.03
2018-07-27T04:01:32.251Z,10.58
2018-07-27T04:03:59.636Z,11.08
2018-07-27T04:06:26.889Z,8.20
2018-07-27T04:08:54.211Z,9.15
2018-07-27T04:11:21.678Z,11.73
2018-07-27T04:13:49.011Z,15.30
2018-07-27T04:16:16.357Z,10.13
2018-07-27T04:18:43.854Z,10.50
2018-07-27T04:21:11.052Z,8.60
2018-07-27T04:23:39.038Z,9.35
2018-07-27T04:26:06.433Z,11.47
2018-07-27T04:28:33.731Z,15.48
2018-07-27T04:31:00.934Z,11.50
2018-07-27T04:33:28.168Z,8.60
2018-07-27T04:35:55.447Z,10.05
2018-07-27T04:38:22.651Z,11.10
2018-07-27T04:40:49.925Z,9.50
2018-07-27T04:43:17.345Z,12.98
2018-07-27T04:45:44.700Z,8.00
2018-07-27T04:48:12.024Z,13.53
2018-07-27T04:50:39.228Z,10.38
2018-07-27T04:53:06.557Z,11.33
2018-07-27T04:55:33.793Z,14.10
2018-07-27T04:58:01.417Z,10.60
2018-07-27T05:00:28.776Z,13.50
2018-07-27T05:02:56.027Z,12.80
2018-07-27T05:05:23.702Z,10.48
2018-07-27T05:07:50.940Z,8.15
2018-07-27T05:10:22.916Z,9.10
2018-07-27T05:12:50.970Z,13.68
2018-07-27T05:15:18.164Z,9.70
2018-07-27T05:17:45.763Z,10.50
2018-07-27T05:20:12.996Z,10.80
2018-07-27T05:22:40.347Z,7.83
2018-07-27T05:25:08.448Z,10.30
2018-07-27T05:27:36.035Z,8.58
2018-07-27T05:30:04.261Z,10.00
2018-07-27T05:32:31.462Z,9.80
2018-07-27T05:34:58.703Z,11.97
2018-07-27T05:37:26.012Z,12.03
2018-07-27T05:39:53.219Z,9.28
2018-07-27T05:42:20.546Z,9.30
2018-07-27T05:44:48.200Z,11.30
2018-07-27T05:47:15.563Z,9.20
2018-07-27T05:49:42.711Z,7.85
2018-07-27T05:52:15.112Z,13.90
2018-07-27T05:54:42.461Z,9.83
2018-07-27T05:57:09.870Z,9.78
2018-07-27T05:59:37.225Z,9.68
2018-07-27T06:02:04.732Z,11.20
2018-07-27T06:04:32.071Z,11.20
2018-07-27T06:07:00.675Z,9.10
2018-07-27T06:09:27.995Z,8.88
2018-07-27T06:11:55.157Z,12.67
2018-07-27T06:14:22.636Z,12.55
2018-07-27T06:16:49.807Z,7.92
2018-07-27T06:19:17.051Z,13.80
2018-07-27T06:21:44.422Z,12.88
2018-07-27T06:24:11.660Z,15.93
2018-07-27T06:26:38.867Z,11.25
2018-07-27T06:29:06.108Z,9.73
2018-07-27T06:31:33.467Z,15.00
2018-07-27T06:34:00.975Z,14.78
2018-07-27T06:36:28.189Z,11.17
2018-07-27T06:38:55.415Z,10.60
2018-07-27T06:41:22.625Z,10.90
2018-07-27T06:43:49.924Z,8.65
2018-07-27T06:46:17.208Z,13.60
2018-07-27T06:48:44.479Z,12.10
2018-07-27T06:51:11.682Z,9.63
2018-07-27T06:53:38.925Z,9.70
2018-07-27T06:56:06.178Z,8.85
2018-07-27T06:58:33.401Z,13.30
2018-07-27T07:01:00.689Z,11.30
2018-07-27T07:03:28.189Z,12.07
2018-07-27T07:05:55.689Z,14.70
2018-07-27T07:08:22.940Z,13.62
2018-07-27T07:10:50.276Z,12.23
2018-07-27T07:13:17.599Z,11.05
2018-07-27T07:15:44.807Z,11.50
2018-07-27T07:18:12.031Z,8.75
2018-07-27T07:20:39.380Z,8.60
2018-07-27T07:23:06.796Z,8.40
2018-07-27T07:25:34.129Z,12.82
2018-07-27T07:28:01.265Z,12.63
2018-07-27T07:30:28.575Z,12.80
2018-07-27T07:35:21.585Z,11.75
2018-07-27T07:37:48.932Z,9.30
2018-07-27T07:40:16.175Z,11.85
2018-07-27T07:42:43.396Z,6.37
2018-07-27T07:45:10.701Z,7.37
2018-07-27T07:47:37.883Z,7.50
2018-07-27T07:50:05.297Z,7.35
2018-07-27T07:52:32.643Z,11.60
2018-07-27T07:54:59.876Z,8.23
2018-07-27T07:57:27.051Z,9.98
2018-07-27T07:59:54.213Z,8.37
2018-07-27T08:02:21.488Z,7.30
2018-07-27T08:04:48.703Z,5.80
2018-07-27T08:07:15.969Z,9.90
2018-07-27T08:09:43.187Z,8.97
2018-07-27T08:12:10.384Z,10.18
2018-07-27T08:14:37.624Z,6.90
2018-07-27T08:17:04.924Z,8.55
2018-07-27T08:19:32.168Z,4.07
2018-07-27T08:21:59.464Z,6.97
2018-07-27T08:24:26.671Z,6.30
2018-07-27T08:27:00.130Z,5.45
2018-07-27T08:29:29.699Z,7.85
2018-07-27T08:31:57.603Z,5.57
2018-07-27T08:34:24.845Z,8.85
2018-07-27T08:36:52.347Z,6.72
2018-07-27T08:39:35.972Z,6.75
2018-07-27T08:42:03.273Z,8.18
2018-07-27T08:44:31.867Z,7.20
2018-07-27T08:46:59.139Z,5.37
2018-07-27T08:49:26.311Z,6.75
2018-07-27T08:51:53.651Z,6.85
2018-07-27T08:54:21.004Z,9.30
2018-07-27T08:56:48.201Z,5.17
2018-07-27T08:59:15.431Z,11.00
2018-07-27T09:01:42.684Z,6.25
2018-07-27T09:04:09.951Z,5.20
2018-07-27T09:06:37.462Z,8.35
2018-07-27T09:09:09.199Z,8.00
2018-07-27T09:11:36.495Z,8.00
2018-07-27T09:14:04.155Z,5.33
2018-07-27T09:16:31.364Z,8.75
2018-07-27T09:18:58.536Z,7.28
2018-07-27T09:21:25.819Z,7.20
2018-07-27T09:23:53.042Z,8.40
2018-07-27T09:26:20.276Z,5.75
2018-07-27T09:28:47.508Z,10.10
2018-07-27T09:31:14.738Z,7.22
2018-07-27T09:33:41.907Z,6.77
2018-07-27T09:36:09.102Z,4.37
2018-07-27T09:38:36.268Z,7.30
2018-07-27T09:41:03.491Z,7.08
2018-07-27T09:43:30.713Z,7.12
2018-07-27T09:45:57.911Z,7.55
2018-07-27T09:48:25.095Z,9.48
2018-07-27T09:50:52.261Z,7.07
2018-07-27T09:53:19.451Z,6.37
2018-07-27T09:55:46.671Z,5.03
2018-07-27T09:58:14.022Z,6.67
2018-07-27T10:00:46.995Z,4.23
2018-07-27T10:03:14.266Z,8.10
2018-07-27T10:05:41.496Z,6.20
2018-07-27T10:09:11.287Z,8.10
2018-07-27T10:11:38.631Z,11.75
2018-07-27T10:14:05.803Z,9.80
2018-07-27T10:16:33.178Z,8.38
2018-07-27T10:19:00.392Z,8.03
2018-07-27T10:21:27.824Z,6.28
2018-07-27T10:23:55.102Z,7.40
2018-07-27T10:26:22.310Z,6.47
2018-07-27T10:28:49.864Z,6.00
2018-07-27T10:31:17.164Z,6.05
2018-07-27T10:33:44.371Z,6.45
2018-07-27T10:36:11.594Z,4.97
2018-07-27T10:38:38.853Z,5.25
2018-07-27T10:41:06.103Z,5.87
2018-07-27T10:43:33.449Z,6.20
2018-07-27T10:46:00.643Z,6.17
2018-07-27T10:48:27.953Z,7.00
2018-07-27T10:50:55.158Z,4.92
2018-07-27T10:53:22.380Z,7.10
2018-07-27T10:55:49.659Z,6.62
2018-07-27T10:58:17.096Z,4.67
2018-07-27T11:00:44.352Z,5.33
2018-07-27T11:03:11.576Z,7.62
2018-07-27T11:05:38.844Z,6.30
2018-07-27T11:08:06.140Z,5.70
2018-07-27T11:10:33.504Z,6.78
2018-07-27T11:13:00.707Z,5.65
2018-07-27T11:15:27.920Z,5.42
2018-07-27T11:17:55.202Z,3.83
2018-07-27T11:20:22.359Z,9.90
2018-07-27T11:22:50.212Z,3.20
2018-07-27T11:57:05.335Z,3.12
2018-07-27T11:59:32.543Z,2.80
2018-07-27T12:01:59.736Z,4.67
2018-07-27T12:04:26.934Z,8.65
2018-07-27T12:06:54.107Z,2.60
2018-07-27T12:11:48.251Z,6.28
2018-07-27T12:14:15.570Z,5.37
2018-07-27T12:16:42.791Z,5.45
2018-07-27T12:19:10.003Z,4.80
2018-07-27T12:21:37.339Z,3.45
2018-07-27T12:24:04.564Z,4.83
2018-07-27T12:26:31.815Z,2.77
2018-07-27T12:28:59.072Z,5.20
2018-07-27T12:31:26.231Z,2.70
2018-07-27T12:33:53.633Z,4.25
2018-07-27T12:36:20.865Z,3.05
2018-07-27T14:07:19.459Z,6.50
2018-07-27T14:09:46.675Z,5.50
2018-07-27T14:12:14.031Z,9.13
2018-07-27T14:14:41.294Z,5.37
2018-07-27T14:17:08.486Z,3.52
2018-07-27T14:19:35.672Z,6.07
2018-07-27T14:22:02.884Z,3.50
2018-07-27T14:24:30.094Z,3.00
2018-07-27T14:31:50.931Z,5.45
2018-07-27T14:34:18.135Z,3.00
2018-07-27T14:36:45.375Z,4.03
2018-07-27T14:39:13.741Z,3.67
2018-07-27T14:41:41.441Z,2.60
2018-07-27T14:44:08.648Z,3.62
2018-07-27T15:25:48.743Z,2.87
2018-07-27T15:28:16.119Z,4.13
2018-07-27T15:30:43.348Z,7.67
2018-07-27T15:33:10.532Z,8.73
2018-07-27T15:35:37.734Z,5.65
2018-07-27T16:25:04.376Z,5.25
2018-07-27T16:27:31.599Z,8.15
2018-07-27T16:30:19.214Z,3.67
2018-07-27T16:32:46.503Z,6.12
2018-07-27T16:35:13.728Z,7.60
2018-07-27T16:37:41.162Z,7.42
2018-07-27T16:40:08.789Z,8.23
2018-07-27T16:42:35.939Z,7.05
2018-07-27T16:45:03.237Z,6.20
2018-07-27T16:47:30.482Z,7.08
2018-07-27T16:49:57.692Z,6.50
2018-07-27T16:52:24.920Z,4.95
2018-07-27T16:54:52.127Z,5.42
2018-07-27T16:57:19.348Z,4.78
2018-07-27T16:59:46.719Z,6.22
2018-07-27T17:02:14.043Z,5.70
2018-07-27T17:04:48.170Z,6.17
2018-07-27T17:07:15.756Z,7.40
2018-07-27T17:09:42.947Z,5.33
2018-07-27T17:12:10.240Z,6.78
2018-07-27T17:14:37.380Z,7.37
2018-07-27T17:17:04.631Z,3.67
2018-07-27T17:19:31.848Z,8.58
2018-07-27T17:21:59.411Z,8.65
2018-07-27T17:24:26.643Z,8.80
2018-07-27T17:41:35.130Z,8.38
2018-07-27T17:44:02.360Z,9.43
2018-07-27T17:48:56.247Z,10.77
2018-07-27T17:51:23.523Z,11.25
2018-07-27T17:53:50.747Z,7.90
2018-07-27T17:56:17.946Z,6.77
2018-07-27T17:58:45.261Z,10.40
2018-07-27T18:01:12.439Z,14.75
2018-07-27T18:03:39.800Z,18.27
2018-07-27T18:06:07.032Z,10.53
2018-07-27T18:08:34.279Z,13.10
2018-07-27T18:11:01.547Z,10.45
2018-07-27T18:13:28.988Z,14.55
2018-07-27T18:15:56.329Z,13.95
2018-07-27T18:18:23.493Z,11.73
2018-07-27T18:20:50.797Z,9.80
2018-07-27T18:23:17.994Z,8.28
2018-07-27T18:25:45.206Z,14.35
2018-07-27T19:22:06.624Z,11.47
2018-07-27T19:24:34.335Z,13.23
2018-07-27T19:27:01.559Z,11.87
2018-07-27T19:29:28.749Z,8.87
2018-07-27T19:31:55.923Z,12.60
2018-07-27T19:34:23.125Z,13.83
2018-07-27T19:36:50.306Z,8.50
2018-07-27T19:39:18.049Z,10.93
2018-07-27T19:41:45.377Z,11.47
2018-07-27T19:44:12.700Z,16.43
2018-07-27T19:46:39.839Z,10.55
2018-07-27T19:49:07.228Z,13.83
2018-07-27T19:51:34.409Z,15.50
2018-07-27T19:54:01.908Z,10.80
2018-07-27T19:56:29.120Z,17.77
2018-07-27T19:58:56.321Z,14.05
2018-07-27T20:01:23.579Z,15.05
2018-07-27T20:03:50.791Z,13.80
2018-07-27T20:06:18.103Z,13.88
2018-07-27T20:08:45.311Z,11.50
2018-07-27T20:11:12.592Z,11.88
2018-07-27T20:13:39.763Z,15.53
2018-07-27T20:16:06.903Z,13.10
2018-07-27T20:18:34.100Z,12.10
2018-07-27T20:21:01.263Z,11.93
2018-07-27T20:23:28.411Z,13.45
2018-07-27T20:25:55.711Z,16.30
2018-07-27T20:28:23.305Z,16.65
2018-07-27T20:30:50.614Z,12.10
2018-07-27T21:34:28.683Z,20.63
2018-07-27T21:36:56.132Z,15.30
2018-07-27T21:39:23.332Z,11.17
2018-07-27T21:41:50.500Z,16.13
2018-07-27T21:44:17.694Z,13.60
2018-07-27T21:46:44.887Z,11.95
2018-07-27T21:49:12.063Z,11.35
2018-07-27T21:51:39.307Z,13.50
2018-07-27T21:54:06.531Z,13.95
2018-07-27T21:56:33.768Z,14.07
2018-07-27T21:59:00.975Z,13.53
2018-07-27T22:01:28.195Z,15.88
2018-07-27T22:03:55.363Z,11.10
2018-07-27T22:06:22.571Z,14.93
2018-07-27T22:08:49.731Z,15.68
2018-07-27T22:11:16.944Z,15.72
2018-07-27T22:13:45.614Z,11.78
2018-07-27T22:16:12.787Z,10.45
2018-07-27T22:18:39.963Z,11.60
2018-07-27T22:21:07.175Z,10.23
2018-07-27T22:23:34.459Z,14.68
2018-07-27T22:26:01.620Z,15.40
2018-07-27T22:28:28.849Z,15.25
2018-07-27T22:30:56.073Z,8.65
2018-07-27T22:33:23.290Z,10.37
2018-07-27T22:35:50.513Z,15.30
2018-07-27T22:45:37.887Z,9.77
2018-07-27T22:48:05.174Z,11.40
2018-07-27T22:50:32.413Z,17.53
2018-07-27T22:52:59.700Z,14.27
2018-07-27T22:55:26.884Z,24.50
2018-07-27T22:57:54.075Z,14.53
2018-07-27T23:00:21.243Z,13.00
2018-07-27T23:02:48.516Z,13.63
2018-07-27T23:05:15.712Z,9.57
2018-07-27T23:07:42.917Z,7.90
2018-07-27T23:10:10.596Z,18.13
2018-07-27T23:12:38.023Z,10.85
2018-07-27T23:15:06.671Z,10.58
2018-07-27T23:17:33.923Z,11.70
2018-07-27T23:20:01.140Z,13.38
2018-07-27T23:22:28.327Z,10.03
2018-07-27T23:24:55.575Z,11.22
2018-07-27T23:27:22.781Z,14.63
2018-07-27T23:29:49.988Z,11.63
2018-07-27T23:32:17.463Z,11.83
2018-07-27T23:34:44.635Z,15.65
2018-07-27T23:37:11.833Z,10.30
2018-07-27T23:39:39.054Z,12.90
2018-07-27T23:42:06.368Z,16.90
2018-07-27T23:44:33.568Z,13.68
2018-07-27T23:47:00.795Z,13.65
2018-07-27T23:49:28.185Z,11.73
2018-07-27T23:51:55.380Z,14.70
2018-07-27T23:54:22.570Z,13.20
2018-07-27T23:56:49.802Z,12.75
2018-07-27T23:59:17.033Z,9.68
